sensor_id;sensor_type;location;lat;lon;timestamp;temperature;humidity
2226;DHT22;1119;48.288;8.726;2023-02-14T00:02:19;1.20;99.90
2226;DHT22;1119;48.288;8.726;2023-02-14T00:04:48;1.10;99.90
2226;DHT22;1119;48.288;8.726;2023-02-14T00:07:15;1.00;99.90
2226;DHT22;1119;48.288;8.726;2023-02-14T00:09:42;1.00;99.90
2226;DHT22;1119;48.288;8.726;2023-02-14T00:12:09;1.00;99.90
2226;DHT22;1119;48.288;8.726;2023-02-14T00:14:36;1.00;99.90
2226;DHT22;1119;48.288;8.726;2023-02-14T00:17:21;1.00;99.90
2226;DHT22;1119;48.288;8.726;2023-02-14T00:19:50;1.00;99.90
2226;DHT22;1119;48.288;8.726;2023-02-14T00:22:17;1.00;99.90
2226;DHT22;1119;48.288;8.726;2023-02-14T00:24:45;1.00;99.90
2226;DHT22;1119;48.288;8.726;2023-02-14T00:27:12;1.10;99.90
2226;DHT22;1119;48.288;8.726;2023-02-14T00:29:39;1.10;99.90
2226;DHT22;1119;48.288;8.726;2023-02-14T00:32:06;1.10;99.90
2226;DHT22;1119;48.288;8.726;2023-02-14T00:34:34;1.10;99.90
2226;DHT22;1119;48.288;8.726;2023-02-14T00:37:03;1.10;99.90
2226;DHT22;1119;48.288;8.726;2023-02-14T00:39:30;1.20;99.90
2226;DHT22;1119;48.288;8.726;2023-02-14T00:41:58;1.10;99.90
2226;DHT22;1119;48.288;8.726;2023-02-14T00:44:25;1.20;99.90
2226;DHT22;1119;48.288;8.726;2023-02-14T00:46:52;1.10;99.90
2226;DHT22;1119;48.288;8.726;2023-02-14T00:49:22;1.10;99.90
2226;DHT22;1119;48.288;8.726;2023-02-14T00:51:49;1.00;99.90
2226;DHT22;1119;48.288;8.726;2023-02-14T00:54:18;1.00;99.90
2226;DHT22;1119;48.288;8.726;2023-02-14T00:56:45;1.00;99.90
2226;DHT22;1119;48.288;8.726;2023-02-14T00:59:13;1.30;99.90
2226;DHT22;1119;48.288;8.726;2023-02-14T01:01:41;0.90;99.90
2226;DHT22;1119;48.288;8.726;2023-02-14T01:04:09;0.90;99.90
2226;DHT22;1119;48.288;8.726;2023-02-14T01:06:37;1.50;99.90
2226;DHT22;1119;48.288;8.726;2023-02-14T01:09:05;0.90;99.90
2226;DHT22;1119;48.288;8.726;2023-02-14T01:11:33;0.80;99.90
2226;DHT22;1119;48.288;8.726;2023-02-14T01:14:01;0.80;99.90
2226;DHT22;1119;48.288;8.726;2023-02-14T01:16:28;0.90;99.90
2226;DHT22;1119;48.288;8.726;2023-02-14T01:18:58;0.90;99.90
2226;DHT22;1119;48.288;8.726;2023-02-14T01:21:27;1.00;99.90
2226;DHT22;1119;48.288;8.726;2023-02-14T01:23:57;1.10;99.90
2226;DHT22;1119;48.288;8.726;2023-02-14T01:26:29;1.10;99.90
2226;DHT22;1119;48.288;8.726;2023-02-14T01:29:01;1.10;99.90
2226;DHT22;1119;48.288;8.726;2023-02-14T01:31:31;1.10;99.90
2226;DHT22;1119;48.288;8.726;2023-02-14T01:34:00;1.10;99.90
2226;DHT22;1119;48.288;8.726;2023-02-14T01:36:31;1.10;99.90
2226;DHT22;1119;48.288;8.726;2023-02-14T01:39:01;1.10;99.90
2226;DHT22;1119;48.288;8.726;2023-02-14T01:41:31;1.10;99.90
2226;DHT22;1119;48.288;8.726;2023-02-14T01:44:04;1.10;99.90
2226;DHT22;1119;48.288;8.726;2023-02-14T01:46:34;1.10;99.90
2226;DHT22;1119;48.288;8.726;2023-02-14T01:49:07;1.10;99.90
2226;DHT22;1119;48.288;8.726;2023-02-14T01:51:41;1.10;99.90
2226;DHT22;1119;48.288;8.726;2023-02-14T01:54:10;1.20;99.90
2226;DHT22;1119;48.288;8.726;2023-02-14T01:56:42;1.20;99.90
2226;DHT22;1119;48.288;8.726;2023-02-14T01:59:17;1.30;99.90
2226;DHT22;1119;48.288;8.726;2023-02-14T02:01:48;1.40;99.90
2226;DHT22;1119;48.288;8.726;2023-02-14T02:04:21;1.40;99.90
2226;DHT22;1119;48.288;8.726;2023-02-14T02:06:52;1.50;99.90
2226;DHT22;1119;48.288;8.726;2023-02-14T02:09:27;1.40;99.90
2226;DHT22;1119;48.288;8.726;2023-02-14T02:11:57;1.50;99.90
2226;DHT22;1119;48.288;8.726;2023-02-14T02:14:28;1.50;99.90
2226;DHT22;1119;48.288;8.726;2023-02-14T02:17:06;1.50;99.90
2226;DHT22;1119;48.288;8.726;2023-02-14T02:26:53;1.80;99.90
2226;DHT22;1119;48.288;8.726;2023-02-14T02:30:11;1.70;99.90
2226;DHT22;1119;48.288;8.726;2023-02-14T02:33:08;1.70;99.90
2226;DHT22;1119;48.288;8.726;2023-02-14T02:36:09;1.60;99.90
2226;DHT22;1119;48.288;8.726;2023-02-14T02:38:54;1.60;99.90
2226;DHT22;1119;48.288;8.726;2023-02-14T02:41:35;1.60;99.90
2226;DHT22;1119;48.288;8.726;2023-02-14T02:44:15;1.60;99.90
2226;DHT22;1119;48.288;8.726;2023-02-14T02:46:51;1.60;99.90
2226;DHT22;1119;48.288;8.726;2023-02-14T02:49:40;1.70;99.90
2226;DHT22;1119;48.288;8.726;2023-02-14T02:52:36;1.80;99.90
2226;DHT22;1119;48.288;8.726;2023-02-14T02:55:30;1.80;99.90
2226;DHT22;1119;48.288;8.726;2023-02-14T02:58:18;1.80;99.90
2226;DHT22;1119;48.288;8.726;2023-02-14T03:00:46;1.80;99.90
2226;DHT22;1119;48.288;8.726;2023-02-14T03:03:15;1.60;99.90
2226;DHT22;1119;48.288;8.726;2023-02-14T03:06:00;1.50;99.90
2226;DHT22;1119;48.288;8.726;2023-02-14T03:08:29;1.30;99.90
2226;DHT22;1119;48.288;8.726;2023-02-14T03:10:57;1.30;99.90
2226;DHT22;1119;48.288;8.726;2023-02-14T03:13:41;1.20;99.90
2226;DHT22;1119;48.288;8.726;2023-02-14T03:16:31;1.20;99.90
2226;DHT22;1119;48.288;8.726;2023-02-14T03:19:23;1.10;99.90
2226;DHT22;1119;48.288;8.726;2023-02-14T03:22:01;1.00;99.90
2226;DHT22;1119;48.288;8.726;2023-02-14T03:24:43;1.00;99.90
2226;DHT22;1119;48.288;8.726;2023-02-14T03:27:17;1.00;99.90
2226;DHT22;1119;48.288;8.726;2023-02-14T03:29:55;1.00;99.90
2226;DHT22;1119;48.288;8.726;2023-02-14T03:32:32;1.10;99.90
2226;DHT22;1119;48.288;8.726;2023-02-14T03:35:09;1.00;99.90
2226;DHT22;1119;48.288;8.726;2023-02-14T03:37:42;1.10;99.90
2226;DHT22;1119;48.288;8.726;2023-02-14T03:40:18;1.10;99.90
2226;DHT22;1119;48.288;8.726;2023-02-14T03:42:51;1.20;99.90
2226;DHT22;1119;48.288;8.726;2023-02-14T03:45:24;1.20;99.90
2226;DHT22;1119;48.288;8.726;2023-02-14T03:47:55;1.20;99.90
2226;DHT22;1119;48.288;8.726;2023-02-14T03:50:25;1.20;99.90
2226;DHT22;1119;48.288;8.726;2023-02-14T03:52:55;1.30;99.90
2226;DHT22;1119;48.288;8.726;2023-02-14T03:55:29;1.20;99.90
2226;DHT22;1119;48.288;8.726;2023-02-14T03:58:04;1.10;99.90
2226;DHT22;1119;48.288;8.726;2023-02-14T04:00:36;1.00;99.90
2226;DHT22;1119;48.288;8.726;2023-02-14T04:03:09;0.90;99.90
2226;DHT22;1119;48.288;8.726;2023-02-14T04:05:38;0.80;99.90
2226;DHT22;1119;48.288;8.726;2023-02-14T04:08:09;0.80;99.90
2226;DHT22;1119;48.288;8.726;2023-02-14T04:10:38;0.80;99.90
2226;DHT22;1119;48.288;8.726;2023-02-14T04:13:07;0.80;99.90
2226;DHT22;1119;48.288;8.726;2023-02-14T04:15:35;0.70;99.90
2226;DHT22;1119;48.288;8.726;2023-02-14T04:18:02;0.70;99.90
2226;DHT22;1119;48.288;8.726;2023-02-14T04:20:47;0.70;99.90
2226;DHT22;1119;48.288;8.726;2023-02-14T04:23:14;0.80;99.90
2226;DHT22;1119;48.288;8.726;2023-02-14T04:25:43;0.80;99.90
2226;DHT22;1119;48.288;8.726;2023-02-14T04:28:10;0.80;99.90
2226;DHT22;1119;48.288;8.726;2023-02-14T04:30:38;0.80;99.90
2226;DHT22;1119;48.288;8.726;2023-02-14T04:33:05;0.70;99.90
2226;DHT22;1119;48.288;8.726;2023-02-14T04:35:33;0.70;99.90
2226;DHT22;1119;48.288;8.726;2023-02-14T04:38:01;0.80;99.90
2226;DHT22;1119;48.288;8.726;2023-02-14T04:40:29;0.90;99.90
2226;DHT22;1119;48.288;8.726;2023-02-14T04:42:58;0.90;99.90
2226;DHT22;1119;48.288;8.726;2023-02-14T04:45:26;0.90;99.90
2226;DHT22;1119;48.288;8.726;2023-02-14T04:47:53;0.90;99.90
2226;DHT22;1119;48.288;8.726;2023-02-14T04:50:20;0.90;99.90
2226;DHT22;1119;48.288;8.726;2023-02-14T04:52:50;1.00;99.90
2226;DHT22;1119;48.288;8.726;2023-02-14T04:55:18;1.00;99.90
2226;DHT22;1119;48.288;8.726;2023-02-14T04:57:45;1.00;99.90
2226;DHT22;1119;48.288;8.726;2023-02-14T05:00:15;1.00;99.90
2226;DHT22;1119;48.288;8.726;2023-02-14T05:02:43;1.00;99.90
2226;DHT22;1119;48.288;8.726;2023-02-14T05:05:10;1.00;99.90
2226;DHT22;1119;48.288;8.726;2023-02-14T05:07:37;1.00;99.90
2226;DHT22;1119;48.288;8.726;2023-02-14T05:10:05;0.90;99.90
2226;DHT22;1119;48.288;8.726;2023-02-14T05:12:33;0.90;99.90
2226;DHT22;1119;48.288;8.726;2023-02-14T05:15:01;0.80;99.90
2226;DHT22;1119;48.288;8.726;2023-02-14T05:17:29;0.80;99.90
2226;DHT22;1119;48.288;8.726;2023-02-14T05:19:56;0.80;99.90
2226;DHT22;1119;48.288;8.726;2023-02-14T05:22:24;0.80;99.90
2226;DHT22;1119;48.288;8.726;2023-02-14T05:24:51;0.80;99.90
2226;DHT22;1119;48.288;8.726;2023-02-14T05:27:18;0.90;99.90
2226;DHT22;1119;48.288;8.726;2023-02-14T05:29:45;0.80;99.90
2226;DHT22;1119;48.288;8.726;2023-02-14T05:32:13;0.90;99.90
2226;DHT22;1119;48.288;8.726;2023-02-14T05:34:43;0.80;99.90
2226;DHT22;1119;48.288;8.726;2023-02-14T05:37:10;0.80;99.90
2226;DHT22;1119;48.288;8.726;2023-02-14T05:39:37;0.80;99.90
2226;DHT22;1119;48.288;8.726;2023-02-14T05:42:05;0.90;99.90
2226;DHT22;1119;48.288;8.726;2023-02-14T05:44:32;0.70;99.90
2226;DHT22;1119;48.288;8.726;2023-02-14T05:47:00;0.80;99.90
2226;DHT22;1119;48.288;8.726;2023-02-14T05:49:27;0.90;99.90
2226;DHT22;1119;48.288;8.726;2023-02-14T05:51:56;1.10;99.90
2226;DHT22;1119;48.288;8.726;2023-02-14T05:54:23;1.50;99.90
2226;DHT22;1119;48.288;8.726;2023-02-14T05:56:50;0.90;99.90
2226;DHT22;1119;48.288;8.726;2023-02-14T05:59:18;0.90;99.90
2226;DHT22;1119;48.288;8.726;2023-02-14T06:01:45;1.10;99.90
2226;DHT22;1119;48.288;8.726;2023-02-14T06:04:12;1.00;99.90
2226;DHT22;1119;48.288;8.726;2023-02-14T06:06:40;1.10;99.90
2226;DHT22;1119;48.288;8.726;2023-02-14T06:09:09;1.20;99.90
2226;DHT22;1119;48.288;8.726;2023-02-14T06:11:36;1.10;99.90
2226;DHT22;1119;48.288;8.726;2023-02-14T06:14:04;1.20;99.90
2226;DHT22;1119;48.288;8.726;2023-02-14T06:16:31;1.00;99.90
2226;DHT22;1119;48.288;8.726;2023-02-14T06:18:59;1.00;99.90
2226;DHT22;1119;48.288;8.726;2023-02-14T06:21:26;0.80;99.90
2226;DHT22;1119;48.288;8.726;2023-02-14T06:23:54;0.80;99.90
2226;DHT22;1119;48.288;8.726;2023-02-14T06:26:23;0.80;99.90
2226;DHT22;1119;48.288;8.726;2023-02-14T06:28:53;0.90;99.90
2226;DHT22;1119;48.288;8.726;2023-02-14T06:31:20;0.60;99.90
2226;DHT22;1119;48.288;8.726;2023-02-14T06:33:48;0.50;99.90
2226;DHT22;1119;48.288;8.726;2023-02-14T06:36:15;0.40;99.90
2226;DHT22;1119;48.288;8.726;2023-02-14T06:38:43;0.50;99.90
2226;DHT22;1119;48.288;8.726;2023-02-14T06:41:13;0.40;99.90
2226;DHT22;1119;48.288;8.726;2023-02-14T06:43:45;0.40;99.90
2226;DHT22;1119;48.288;8.726;2023-02-14T06:46:13;0.50;99.90
2226;DHT22;1119;48.288;8.726;2023-02-14T06:48:41;0.70;99.90
2226;DHT22;1119;48.288;8.726;2023-02-14T06:51:09;1.10;99.90
2226;DHT22;1119;48.288;8.726;2023-02-14T06:53:37;1.50;99.90
2226;DHT22;1119;48.288;8.726;2023-02-14T06:56:05;1.80;99.90
2226;DHT22;1119;48.288;8.726;2023-02-14T06:58:33;2.20;99.90
2226;DHT22;1119;48.288;8.726;2023-02-14T07:01:02;2.30;99.90
2226;DHT22;1119;48.288;8.726;2023-02-14T07:03:30;2.40;99.90
2226;DHT22;1119;48.288;8.726;2023-02-14T07:05:57;2.50;99.90
2226;DHT22;1119;48.288;8.726;2023-02-14T07:08:25;2.90;99.90
2226;DHT22;1119;48.288;8.726;2023-02-14T07:10:54;3.50;99.90
2226;DHT22;1119;48.288;8.726;2023-02-14T07:13:22;4.00;99.90
2226;DHT22;1119;48.288;8.726;2023-02-14T07:15:50;4.40;99.90
2226;DHT22;1119;48.288;8.726;2023-02-14T07:18:18;4.80;99.90
2226;DHT22;1119;48.288;8.726;2023-02-14T07:20:46;5.00;99.90
2226;DHT22;1119;48.288;8.726;2023-02-14T07:23:13;5.60;99.90
2226;DHT22;1119;48.288;8.726;2023-02-14T07:25:41;6.30;99.90
2226;DHT22;1119;48.288;8.726;2023-02-14T07:28:08;7.30;97.90
2226;DHT22;1119;48.288;8.726;2023-02-14T07:30:35;8.00;95.40
2226;DHT22;1119;48.288;8.726;2023-02-14T07:33:05;8.80;93.50
2226;DHT22;1119;48.288;8.726;2023-02-14T07:35:34;8.90;92.20
2226;DHT22;1119;48.288;8.726;2023-02-14T07:38:01;8.00;96.00
2226;DHT22;1119;48.288;8.726;2023-02-14T07:40:29;7.00;96.40
2226;DHT22;1119;48.288;8.726;2023-02-14T07:42:57;5.60;94.60
2226;DHT22;1119;48.288;8.726;2023-02-14T07:45:26;5.00;96.20
2226;DHT22;1119;48.288;8.726;2023-02-14T07:47:54;4.20;98.20
2226;DHT22;1119;48.288;8.726;2023-02-14T07:50:23;4.00;99.90
2226;DHT22;1119;48.288;8.726;2023-02-14T07:52:52;3.60;99.90
2226;DHT22;1119;48.288;8.726;2023-02-14T07:55:20;3.40;99.90
2226;DHT22;1119;48.288;8.726;2023-02-14T07:57:50;3.20;99.90
2226;DHT22;1119;48.288;8.726;2023-02-14T08:00:19;3.10;99.90
2226;DHT22;1119;48.288;8.726;2023-02-14T08:02:47;3.00;99.90
2226;DHT22;1119;48.288;8.726;2023-02-14T08:05:14;2.90;99.90
2226;DHT22;1119;48.288;8.726;2023-02-14T08:07:42;2.80;99.90
2226;DHT22;1119;48.288;8.726;2023-02-14T08:10:11;3.10;99.90
2226;DHT22;1119;48.288;8.726;2023-02-14T08:12:38;2.70;99.90
2226;DHT22;1119;48.288;8.726;2023-02-14T08:15:23;2.70;99.90
2226;DHT22;1119;48.288;8.726;2023-02-14T08:18:08;2.80;99.90
2226;DHT22;1119;48.288;8.726;2023-02-14T08:20:35;2.90;99.90
2226;DHT22;1119;48.288;8.726;2023-02-14T08:23:03;3.00;99.90
2226;DHT22;1119;48.288;8.726;2023-02-14T08:25:32;3.10;99.90
2226;DHT22;1119;48.288;8.726;2023-02-14T08:28:00;3.20;99.90
2226;DHT22;1119;48.288;8.726;2023-02-14T08:30:28;3.30;99.90
2226;DHT22;1119;48.288;8.726;2023-02-14T08:32:56;3.60;99.90
2226;DHT22;1119;48.288;8.726;2023-02-14T08:35:23;3.60;99.90
2226;DHT22;1119;48.288;8.726;2023-02-14T08:37:50;3.70;99.90
2226;DHT22;1119;48.288;8.726;2023-02-14T08:40:18;3.90;99.90
2226;DHT22;1119;48.288;8.726;2023-02-14T08:42:47;3.90;99.90
2226;DHT22;1119;48.288;8.726;2023-02-14T08:45:14;4.00;99.90
2226;DHT22;1119;48.288;8.726;2023-02-14T08:47:42;4.10;99.90
2226;DHT22;1119;48.288;8.726;2023-02-14T08:50:11;4.30;99.90
2226;DHT22;1119;48.288;8.726;2023-02-14T08:52:40;4.20;99.90
2226;DHT22;1119;48.288;8.726;2023-02-14T08:55:10;4.30;99.90
2226;DHT22;1119;48.288;8.726;2023-02-14T08:57:38;4.80;99.90
2226;DHT22;1119;48.288;8.726;2023-02-14T09:00:08;4.70;99.90
2226;DHT22;1119;48.288;8.726;2023-02-14T09:02:36;4.60;99.90
2226;DHT22;1119;48.288;8.726;2023-02-14T09:05:04;4.70;99.90
2226;DHT22;1119;48.288;8.726;2023-02-14T09:07:32;5.00;99.90
2226;DHT22;1119;48.288;8.726;2023-02-14T09:10:01;5.20;99.90
2226;DHT22;1119;48.288;8.726;2023-02-14T09:12:28;5.90;99.90
2226;DHT22;1119;48.288;8.726;2023-02-14T09:14:55;6.10;99.90
2226;DHT22;1119;48.288;8.726;2023-02-14T09:17:24;6.40;99.90
2226;DHT22;1119;48.288;8.726;2023-02-14T09:19:51;7.30;99.90
2226;DHT22;1119;48.288;8.726;2023-02-14T09:22:18;8.20;99.90
2226;DHT22;1119;48.288;8.726;2023-02-14T09:24:46;9.20;99.90
2226;DHT22;1119;48.288;8.726;2023-02-14T09:29:41;10.60;98.10
2226;DHT22;1119;48.288;8.726;2023-02-14T09:32:08;10.60;95.80
2226;DHT22;1119;48.288;8.726;2023-02-14T09:34:37;10.60;94.50
2226;DHT22;1119;48.288;8.726;2023-02-14T09:37:22;10.60;92.90
2226;DHT22;1119;48.288;8.726;2023-02-14T09:40:08;10.80;91.70
2226;DHT22;1119;48.288;8.726;2023-02-14T09:42:51;11.10;91.30
2226;DHT22;1119;48.288;8.726;2023-02-14T09:45:23;11.30;90.10
2226;DHT22;1119;48.288;8.726;2023-02-14T09:47:54;11.30;90.20
2226;DHT22;1119;48.288;8.726;2023-02-14T09:50:26;11.30;90.40
2226;DHT22;1119;48.288;8.726;2023-02-14T09:53:02;11.20;92.20
2226;DHT22;1119;48.288;8.726;2023-02-14T09:55:37;11.10;91.80
2226;DHT22;1119;48.288;8.726;2023-02-14T09:58:12;11.20;92.20
2226;DHT22;1119;48.288;8.726;2023-02-14T10:00:45;11.20;79.50
2226;DHT22;1119;48.288;8.726;2023-02-14T10:03:35;11.10;80.00
2226;DHT22;1119;48.288;8.726;2023-02-14T10:06:20;10.90;79.10
2226;DHT22;1119;48.288;8.726;2023-02-14T10:09:02;10.70;79.80
2226;DHT22;1119;48.288;8.726;2023-02-14T10:11:34;10.50;80.50
2226;DHT22;1119;48.288;8.726;2023-02-14T10:14:07;10.40;80.50
2226;DHT22;1119;48.288;8.726;2023-02-14T10:16:41;10.30;81.60
2226;DHT22;1119;48.288;8.726;2023-02-14T10:19:17;10.30;81.60
2226;DHT22;1119;48.288;8.726;2023-02-14T10:21:51;10.20;82.00
2226;DHT22;1119;48.288;8.726;2023-02-14T10:24:24;10.10;82.50
2226;DHT22;1119;48.288;8.726;2023-02-14T10:26:55;10.00;83.50
2226;DHT22;1119;48.288;8.726;2023-02-14T10:29:27;10.00;83.70
2226;DHT22;1119;48.288;8.726;2023-02-14T10:31:57;10.10;83.60
2226;DHT22;1119;48.288;8.726;2023-02-14T10:34:32;10.10;84.10
2226;DHT22;1119;48.288;8.726;2023-02-14T10:37:17;10.20;84.60
2226;DHT22;1119;48.288;8.726;2023-02-14T10:40:11;10.40;84.90
2226;DHT22;1119;48.288;8.726;2023-02-14T10:42:52;10.60;83.40
2226;DHT22;1119;48.288;8.726;2023-02-14T10:45:31;10.70;82.40
2226;DHT22;1119;48.288;8.726;2023-02-14T10:48:10;10.80;81.80
2226;DHT22;1119;48.288;8.726;2023-02-14T10:50:48;10.90;81.90
2226;DHT22;1119;48.288;8.726;2023-02-14T10:53:25;10.90;81.60
2226;DHT22;1119;48.288;8.726;2023-02-14T10:56:02;11.00;81.90
2226;DHT22;1119;48.288;8.726;2023-02-14T10:58:33;11.20;81.10
2226;DHT22;1119;48.288;8.726;2023-02-14T11:01:05;11.40;80.90
2226;DHT22;1119;48.288;8.726;2023-02-14T11:03:37;11.70;80.10
2226;DHT22;1119;48.288;8.726;2023-02-14T11:06:07;12.00;78.90
2226;DHT22;1119;48.288;8.726;2023-02-14T11:08:37;12.30;78.50
2226;DHT22;1119;48.288;8.726;2023-02-14T11:11:12;12.50;75.60
2226;DHT22;1119;48.288;8.726;2023-02-14T11:13:43;12.70;73.70
2226;DHT22;1119;48.288;8.726;2023-02-14T11:16:17;12.90;70.90
2226;DHT22;1119;48.288;8.726;2023-02-14T11:18:45;12.80;71.70
2226;DHT22;1119;48.288;8.726;2023-02-14T11:21:14;12.80;71.30
2226;DHT22;1119;48.288;8.726;2023-02-14T11:23:48;12.80;68.50
2226;DHT22;1119;48.288;8.726;2023-02-14T11:26:22;12.70;69.80
2226;DHT22;1119;48.288;8.726;2023-02-14T11:28:55;12.70;69.40
2226;DHT22;1119;48.288;8.726;2023-02-14T11:31:26;12.70;70.10
2226;DHT22;1119;48.288;8.726;2023-02-14T11:33:55;12.70;68.50
2226;DHT22;1119;48.288;8.726;2023-02-14T11:36:25;12.80;69.00
2226;DHT22;1119;48.288;8.726;2023-02-14T11:39:04;12.90;69.80
2226;DHT22;1119;48.288;8.726;2023-02-14T11:41:55;13.00;69.00
2226;DHT22;1119;48.288;8.726;2023-02-14T11:44:25;13.20;69.40
2226;DHT22;1119;48.288;8.726;2023-02-14T11:46:55;13.30;69.60
2226;DHT22;1119;48.288;8.726;2023-02-14T11:49:26;13.50;69.30
2226;DHT22;1119;48.288;8.726;2023-02-14T11:51:57;13.80;68.50
2226;DHT22;1119;48.288;8.726;2023-02-14T11:54:31;13.90;65.90
2226;DHT22;1119;48.288;8.726;2023-02-14T11:57:05;14.10;65.60
2226;DHT22;1119;48.288;8.726;2023-02-14T11:59:42;14.30;64.10
2226;DHT22;1119;48.288;8.726;2023-02-14T12:02:26;14.50;63.40
2226;DHT22;1119;48.288;8.726;2023-02-14T12:05:00;14.60;60.90
2226;DHT22;1119;48.288;8.726;2023-02-14T12:07:31;14.80;59.70
2226;DHT22;1119;48.288;8.726;2023-02-14T12:10:23;14.80;59.90
2226;DHT22;1119;48.288;8.726;2023-02-14T12:12:57;14.90;59.90
2226;DHT22;1119;48.288;8.726;2023-02-14T12:15:31;14.80;59.70
2226;DHT22;1119;48.288;8.726;2023-02-14T12:18:24;14.80;58.50
2226;DHT22;1119;48.288;8.726;2023-02-14T12:21:06;14.80;57.50
2226;DHT22;1119;48.288;8.726;2023-02-14T12:23:42;14.80;58.40
2226;DHT22;1119;48.288;8.726;2023-02-14T12:26:21;14.90;57.60
2226;DHT22;1119;48.288;8.726;2023-02-14T12:28:57;14.80;56.60
2226;DHT22;1119;48.288;8.726;2023-02-14T12:31:29;14.80;56.40
2226;DHT22;1119;48.288;8.726;2023-02-14T12:33:56;14.80;55.40
2226;DHT22;1119;48.288;8.726;2023-02-14T12:36:37;14.80;55.60
2226;DHT22;1119;48.288;8.726;2023-02-14T12:39:17;14.80;56.20
2226;DHT22;1119;48.288;8.726;2023-02-14T12:41:58;14.80;56.50
2226;DHT22;1119;48.288;8.726;2023-02-14T12:44:39;14.90;56.60
2226;DHT22;1119;48.288;8.726;2023-02-14T12:47:18;15.00;56.30
2226;DHT22;1119;48.288;8.726;2023-02-14T12:50:19;15.20;55.40
2226;DHT22;1119;48.288;8.726;2023-02-14T12:53:10;15.30;53.50
2226;DHT22;1119;48.288;8.726;2023-02-14T12:55:57;15.40;53.20
2226;DHT22;1119;48.288;8.726;2023-02-14T12:58:43;15.40;53.60
2226;DHT22;1119;48.288;8.726;2023-02-14T13:01:41;15.40;51.30
2226;DHT22;1119;48.288;8.726;2023-02-14T13:04:31;15.30;51.00
2226;DHT22;1119;48.288;8.726;2023-02-14T13:07:16;15.20;51.70
2226;DHT22;1119;48.288;8.726;2023-02-14T13:09:57;15.20;52.40
2226;DHT22;1119;48.288;8.726;2023-02-14T13:12:32;15.20;52.10
2226;DHT22;1119;48.288;8.726;2023-02-14T13:15:10;15.30;51.60
2226;DHT22;1119;48.288;8.726;2023-02-14T13:17:48;15.30;51.70
2226;DHT22;1119;48.288;8.726;2023-02-14T13:20:39;15.10;51.60
2226;DHT22;1119;48.288;8.726;2023-02-14T13:23:13;15.00;52.40
2226;DHT22;1119;48.288;8.726;2023-02-14T13:25:48;14.90;52.60
2226;DHT22;1119;48.288;8.726;2023-02-14T13:28:19;14.90;52.80
2226;DHT22;1119;48.288;8.726;2023-02-14T13:30:48;14.80;52.50
2226;DHT22;1119;48.288;8.726;2023-02-14T13:33:27;14.60;52.70
2226;DHT22;1119;48.288;8.726;2023-02-14T13:35:59;14.50;52.80
2226;DHT22;1119;48.288;8.726;2023-02-14T13:38:28;14.60;53.40
2226;DHT22;1119;48.288;8.726;2023-02-14T13:40:58;14.40;53.00
2226;DHT22;1119;48.288;8.726;2023-02-14T13:43:47;14.40;53.30
2226;DHT22;1119;48.288;8.726;2023-02-14T13:46:19;14.30;53.30
2226;DHT22;1119;48.288;8.726;2023-02-14T13:48:59;14.20;53.00
2226;DHT22;1119;48.288;8.726;2023-02-14T13:51:44;14.10;52.80
2226;DHT22;1119;48.288;8.726;2023-02-14T13:54:29;14.00;53.10
2226;DHT22;1119;48.288;8.726;2023-02-14T13:57:00;14.00;53.70
2226;DHT22;1119;48.288;8.726;2023-02-14T13:59:30;14.00;54.10
2226;DHT22;1119;48.288;8.726;2023-02-14T14:02:30;13.90;53.90
2226;DHT22;1119;48.288;8.726;2023-02-14T14:05:45;14.00;54.70
2226;DHT22;1119;48.288;8.726;2023-02-14T14:11:53;13.90;58.90
2226;DHT22;1119;48.288;8.726;2023-02-14T14:14:32;13.80;60.00
2226;DHT22;1119;48.288;8.726;2023-02-14T14:17:18;13.80;60.40
2226;DHT22;1119;48.288;8.726;2023-02-14T14:19:52;13.80;60.70
2226;DHT22;1119;48.288;8.726;2023-02-14T14:22:20;13.70;60.60
2226;DHT22;1119;48.288;8.726;2023-02-14T14:24:56;13.70;59.90
2226;DHT22;1119;48.288;8.726;2023-02-14T14:27:28;13.70;59.90
2226;DHT22;1119;48.288;8.726;2023-02-14T14:29:59;13.70;60.00
2226;DHT22;1119;48.288;8.726;2023-02-14T14:32:29;13.70;59.90
2226;DHT22;1119;48.288;8.726;2023-02-14T14:35:00;13.60;60.10
2226;DHT22;1119;48.288;8.726;2023-02-14T14:37:46;13.60;60.10
2226;DHT22;1119;48.288;8.726;2023-02-14T14:40:21;13.50;59.80
2226;DHT22;1119;48.288;8.726;2023-02-14T14:42:51;13.50;59.90
2226;DHT22;1119;48.288;8.726;2023-02-14T14:45:21;13.40;59.70
2226;DHT22;1119;48.288;8.726;2023-02-14T14:47:52;13.40;59.90
2226;DHT22;1119;48.288;8.726;2023-02-14T14:50:24;13.40;59.70
2226;DHT22;1119;48.288;8.726;2023-02-14T14:52:55;13.40;59.10
2226;DHT22;1119;48.288;8.726;2023-02-14T14:55:26;13.50;58.80
2226;DHT22;1119;48.288;8.726;2023-02-14T14:57:58;13.40;58.40
2226;DHT22;1119;48.288;8.726;2023-02-14T15:00:30;13.30;58.40
2226;DHT22;1119;48.288;8.726;2023-02-14T15:03:02;13.30;58.30
2226;DHT22;1119;48.288;8.726;2023-02-14T15:05:34;13.30;58.40
2226;DHT22;1119;48.288;8.726;2023-02-14T15:08:19;13.30;58.40
2226;DHT22;1119;48.288;8.726;2023-02-14T15:10:49;13.30;57.60
2226;DHT22;1119;48.288;8.726;2023-02-14T15:13:25;13.20;58.20
2226;DHT22;1119;48.288;8.726;2023-02-14T15:16:23;13.10;58.80
2226;DHT22;1119;48.288;8.726;2023-02-14T15:18:54;13.10;59.60
2226;DHT22;1119;48.288;8.726;2023-02-14T15:21:25;13.00;60.70
2226;DHT22;1119;48.288;8.726;2023-02-14T15:23:53;13.00;61.10
2226;DHT22;1119;48.288;8.726;2023-02-14T15:26:27;12.90;62.30
2226;DHT22;1119;48.288;8.726;2023-02-14T15:28:58;12.70;63.40
2226;DHT22;1119;48.288;8.726;2023-02-14T15:31:33;12.70;64.60
2226;DHT22;1119;48.288;8.726;2023-02-14T15:34:03;12.50;65.40
2226;DHT22;1119;48.288;8.726;2023-02-14T15:36:33;12.40;65.70
2226;DHT22;1119;48.288;8.726;2023-02-14T15:39:03;12.30;66.20
2226;DHT22;1119;48.288;8.726;2023-02-14T15:41:31;12.30;66.70
2226;DHT22;1119;48.288;8.726;2023-02-14T15:43:59;12.10;66.60
2226;DHT22;1119;48.288;8.726;2023-02-14T15:46:31;12.00;66.80
2226;DHT22;1119;48.288;8.726;2023-02-14T15:49:05;12.00;67.00
2226;DHT22;1119;48.288;8.726;2023-02-14T15:51:37;11.90;67.20
2226;DHT22;1119;48.288;8.726;2023-02-14T15:54:06;11.80;67.20
2226;DHT22;1119;48.288;8.726;2023-02-14T15:56:44;11.70;67.20
2226;DHT22;1119;48.288;8.726;2023-02-14T15:59:16;11.60;67.60
2226;DHT22;1119;48.288;8.726;2023-02-14T16:01:49;11.50;67.60
2226;DHT22;1119;48.288;8.726;2023-02-14T16:04:22;11.50;67.70
2226;DHT22;1119;48.288;8.726;2023-02-14T16:07:06;11.50;68.10
2226;DHT22;1119;48.288;8.726;2023-02-14T16:09:47;11.40;67.90
2226;DHT22;1119;48.288;8.726;2023-02-14T16:12:29;11.40;68.00
2226;DHT22;1119;48.288;8.726;2023-02-14T16:15:04;11.30;68.10
2226;DHT22;1119;48.288;8.726;2023-02-14T16:17:43;11.20;68.40
2226;DHT22;1119;48.288;8.726;2023-02-14T16:20:38;11.20;69.00
2226;DHT22;1119;48.288;8.726;2023-02-14T16:23:20;11.10;69.40
2226;DHT22;1119;48.288;8.726;2023-02-14T16:25:52;11.00;69.90
2226;DHT22;1119;48.288;8.726;2023-02-14T16:28:22;10.90;70.10
2226;DHT22;1119;48.288;8.726;2023-02-14T16:30:54;10.90;70.50
2226;DHT22;1119;48.288;8.726;2023-02-14T16:33:24;10.90;71.00
2226;DHT22;1119;48.288;8.726;2023-02-14T16:35:52;10.80;71.40
2226;DHT22;1119;48.288;8.726;2023-02-14T16:38:22;10.70;71.70
2226;DHT22;1119;48.288;8.726;2023-02-14T16:40:51;10.70;72.30
2226;DHT22;1119;48.288;8.726;2023-02-14T16:43:20;10.60;72.60
2226;DHT22;1119;48.288;8.726;2023-02-14T16:45:47;10.50;72.90
2226;DHT22;1119;48.288;8.726;2023-02-14T16:48:15;10.50;73.10
2226;DHT22;1119;48.288;8.726;2023-02-14T16:50:42;10.50;73.50
2226;DHT22;1119;48.288;8.726;2023-02-14T16:53:23;10.40;73.70
2226;DHT22;1119;48.288;8.726;2023-02-14T16:55:53;10.20;73.60
2226;DHT22;1119;48.288;8.726;2023-02-14T16:58:23;10.20;73.80
2226;DHT22;1119;48.288;8.726;2023-02-14T17:00:53;10.10;73.90